Time;durP1;ratioP1;P1;durP2;ratioP2;P2;SDS_P1;SDS_P2;PMS_P1;PMS_P2;Temp;Humidity;BMP_temperature;BMP_pressure;BME280_temperature;BME280_humidity;BME280_pressure;Samples;Min_cycle;Max_cycle;Signal;HPM_P1;HPM_P2
2021/10/23 00:02:30;;;;;;;4.80;1.33;;;9.60;95.40;;;;;;5013126;28;20030;-76
2021/10/23 00:04:56;;;;;;;4.78;1.35;;;9.60;95.30;;;;;;5012706;28;20030;-77
2021/10/23 00:07:22;;;;;;;7.60;1.50;;;9.70;95.30;;;;;;5012479;28;20205;-77
2021/10/23 00:09:47;;;;;;;2.70;1.20;;;9.70;95.20;;;;;;5011549;28;20022;-76
2021/10/23 00:12:13;;;;;;;4.05;1.52;;;9.60;95.20;;;;;;5012231;28;20377;-76
2021/10/23 00:14:39;;;;;;;9.32;1.52;;;9.70;95.20;;;;;;5011998;28;20022;-75
2021/10/23 00:17:05;;;;;;;6.68;1.52;;;9.60;95.20;;;;;;5011778;28;20064;-75
2021/10/23 00:19:30;;;;;;;9.10;1.77;;;9.70;95.20;;;;;;5011798;28;20049;-75
2021/10/23 00:21:56;;;;;;;3.92;1.50;;;9.70;95.20;;;;;;5011056;28;20026;-75
2021/10/23 00:24:22;;;;;;;5.43;2.15;;;9.70;95.20;;;;;;5012861;28;20121;-75
2021/10/23 00:26:48;;;;;;;6.35;1.60;;;9.70;95.20;;;;;;5011234;28;20543;-75
2021/10/23 00:29:13;;;;;;;4.95;1.25;;;9.70;95.20;;;;;;5011642;28;20116;-75
2021/10/23 00:31:39;;;;;;;3.35;1.23;;;9.70;95.20;;;;;;5012696;28;20030;-75
2021/10/23 00:34:05;;;;;;;4.38;1.42;;;9.70;95.20;;;;;;5011140;28;20057;-75
2021/10/23 00:36:30;;;;;;;7.63;1.67;;;9.70;95.10;;;;;;5011545;28;20109;-75
2021/10/23 00:38:56;;;;;;;4.40;1.65;;;9.70;95.20;;;;;;5010980;28;20018;-75
2021/10/23 00:41:22;;;;;;;3.90;1.67;;;9.70;95.20;;;;;;5013451;28;20029;-75
2021/10/23 00:43:47;;;;;;;4.28;1.65;;;9.70;95.30;;;;;;5014671;28;20029;-75
2021/10/23 00:46:15;;;;;;;4.03;1.60;;;9.70;95.30;;;;;;5015403;28;20117;-75
2021/10/23 00:48:42;;;;;;;5.55;1.70;;;9.70;95.40;;;;;;5015208;28;20402;-77
2021/10/23 00:51:10;;;;;;;4.20;1.48;;;9.70;95.40;;;;;;5015402;28;20022;-76
2021/10/23 00:53:36;;;;;;;7.30;1.90;;;9.70;95.40;;;;;;5016373;28;20105;-76
2021/10/23 00:56:04;;;;;;;6.60;1.45;;;9.70;95.40;;;;;;5014157;28;20054;-76
2021/10/23 00:58:30;;;;;;;4.00;1.48;;;9.70;95.50;;;;;;5015285;28;20022;-76
2021/10/23 01:00:56;;;;;;;4.53;1.50;;;9.70;95.40;;;;;;5016065;28;20033;-76
2021/10/23 01:03:22;;;;;;;4.80;1.88;;;9.60;95.40;;;;;;5016370;28;20033;-75
2021/10/23 01:05:48;;;;;;;8.07;1.67;;;9.70;95.40;;;;;;5014336;28;20026;-76
2021/10/23 01:08:14;;;;;;;6.28;1.75;;;9.60;95.50;;;;;;5016475;28;20106;-75
2021/10/23 01:10:40;;;;;;;5.43;1.67;;;9.60;95.60;;;;;;5015037;28;20088;-76
2021/10/23 01:13:06;;;;;;;4.53;1.60;;;9.60;95.50;;;;;;5014487;28;20080;-76
2021/10/23 01:15:33;;;;;;;4.43;1.50;;;9.60;95.50;;;;;;5016098;28;20026;-76
2021/10/23 01:18:02;;;;;;;8.27;1.40;;;9.60;95.50;;;;;;5014577;28;20028;-77
2021/10/23 01:20:28;;;;;;;5.57;1.75;;;9.60;95.50;;;;;;5014825;28;20034;-76
2021/10/23 01:22:54;;;;;;;6.15;1.73;;;9.60;95.50;;;;;;5015285;28;20033;-76
2021/10/23 01:25:24;;;;;;;8.27;1.73;;;9.60;95.50;;;;;;5015215;28;20026;-76
2021/10/23 01:27:58;;;;;;;4.85;1.88;;;9.60;95.50;;;;;;5014447;28;20030;-76
2021/10/23 01:30:24;;;;;;;7.35;1.88;;;9.60;95.50;;;;;;5015110;28;20048;-76
2021/10/23 01:32:54;;;;;;;7.45;2.00;;;9.60;95.50;;;;;;5014537;28;20455;-77
2021/10/23 01:35:24;;;;;;;3.60;1.67;;;9.60;95.40;;;;;;5014601;28;20032;-76
2021/10/23 01:37:51;;;;;;;7.55;2.58;;;9.60;95.50;;;;;;5014240;28;20117;-76
2021/10/23 01:40:23;;;;;;;5.97;1.50;;;9.60;95.50;;;;;;5015998;28;20100;-76
2021/10/23 01:42:49;;;;;;;6.40;2.25;;;9.60;95.30;;;;;;5014148;28;20072;-77
2021/10/23 01:45:15;;;;;;;5.25;1.80;;;9.60;95.20;;;;;;5015830;28;20402;-76
2021/10/23 01:47:42;;;;;;;4.00;1.58;;;9.60;95.10;;;;;;5014606;28;20018;-76
2021/10/23 01:50:17;;;;;;;7.53;1.70;;;9.60;95.10;;;;;;5014193;28;20029;-76
2021/10/23 01:52:43;;;;;;;4.10;1.58;;;9.60;95.10;;;;;;5014872;28;20026;-76
2021/10/23 01:55:10;;;;;;;6.90;1.58;;;9.60;95.10;;;;;;5013490;28;20104;-75
2021/10/23 01:57:37;;;;;;;7.45;1.70;;;9.60;94.90;;;;;;5014413;28;20064;-76
2021/10/23 02:00:04;;;;;;;7.07;2.05;;;9.60;94.80;;;;;;5015032;28;20019;-76
2021/10/23 02:02:29;;;;;;;8.75;2.10;;;9.60;94.80;;;;;;5014487;28;20466;-76
2021/10/23 02:04:55;;;;;;;5.07;1.67;;;9.60;94.80;;;;;;5013684;28;20036;-76
2021/10/23 02:07:20;;;;;;;9.05;1.83;;;9.60;94.60;;;;;;5013955;28;20058;-76
2021/10/23 02:09:46;;;;;;;7.97;2.00;;;9.60;94.50;;;;;;5013840;28;20025;-77
2021/10/23 02:12:12;;;;;;;6.78;2.10;;;9.60;94.50;;;;;;5015013;28;20045;-73
2021/10/23 02:14:37;;;;;;;6.88;2.03;;;9.60;94.70;;;;;;5013821;28;20513;-73
2021/10/23 02:17:03;;;;;;;9.10;2.13;;;9.60;94.50;;;;;;5014618;28;20059;-73
2021/10/23 02:19:28;;;;;;;7.18;2.20;;;9.60;94.50;;;;;;5015009;28;20025;-73
2021/10/23 02:21:54;;;;;;;6.15;2.40;;;9.60;94.50;;;;;;5013159;28;20116;-73
2021/10/23 02:24:20;;;;;;;7.68;2.22;;;9.60;94.40;;;;;;5014874;28;20021;-73
2021/10/23 02:26:45;;;;;;;8.18;2.63;;;9.60;94.50;;;;;;5013093;28;20549;-74
2021/10/23 02:29:11;;;;;;;7.72;2.25;;;9.70;94.40;;;;;;5013001;28;20036;-73
2021/10/23 02:31:36;;;;;;;5.57;2.15;;;9.70;94.30;;;;;;5013491;28;20113;-73
2021/10/23 02:34:02;;;;;;;9.20;2.40;;;9.70;94.40;;;;;;5013688;28;20022;-74
2021/10/23 02:36:28;;;;;;;6.85;2.10;;;9.70;94.30;;;;;;5013019;28;20034;-74
2021/10/23 02:38:53;;;;;;;7.40;2.47;;;9.70;94.30;;;;;;5012340;28;20076;-75
2021/10/23 02:41:24;;;;;;;6.55;1.77;;;9.70;94.50;;;;;;5012977;28;20044;-74
2021/10/23 02:43:51;;;;;;;3.05;1.63;;;9.70;94.50;;;;;;5011933;28;20116;-76
2021/10/23 02:46:16;;;;;;;6.13;1.55;;;9.70;94.50;;;;;;5012751;28;20026;-74
2021/10/23 02:48:42;;;;;;;6.90;2.00;;;9.70;94.50;;;;;;5012779;28;20454;-74
2021/10/23 02:51:08;;;;;;;3.67;1.63;;;9.70;94.60;;;;;;5011932;28;20030;-74
2021/10/23 02:53:34;;;;;;;4.25;1.40;;;9.70;94.70;;;;;;5012717;28;20088;-74
2021/10/23 02:55:59;;;;;;;4.25;1.75;;;9.70;94.70;;;;;;5011722;28;20145;-74
2021/10/23 02:58:25;;;;;;;4.85;2.17;;;9.70;94.80;;;;;;5012207;28;20424;-74
2021/10/23 03:00:51;;;;;;;6.82;1.70;;;9.70;94.80;;;;;;5013400;28;20461;-74
2021/10/23 03:03:16;;;;;;;3.53;1.50;;;9.70;94.90;;;;;;5013311;28;20156;-74
2021/10/23 03:05:42;;;;;;;5.40;1.67;;;9.60;95.00;;;;;;5028405;28;20026;-74
2021/10/23 03:08:08;;;;;;;4.15;1.67;;;9.60;95.10;;;;;;5028753;28;20109;-74
2021/10/23 03:10:33;;;;;;;6.05;1.73;;;9.60;95.10;;;;;;5029434;28;20455;-74
2021/10/23 03:12:59;;;;;;;4.80;1.55;;;9.60;95.20;;;;;;5028242;28;20021;-75
2021/10/23 03:15:24;;;;;;;6.30;1.73;;;9.60;95.20;;;;;;5011848;28;20032;-75
2021/10/23 03:17:50;;;;;;;4.10;1.52;;;9.60;95.30;;;;;;5013259;28;20018;-76
2021/10/23 03:20:16;;;;;;;3.45;1.52;;;9.50;95.30;;;;;;5013618;28;20028;-76
2021/10/23 03:22:42;;;;;;;6.38;1.70;;;9.50;95.40;;;;;;5013752;28;20026;-76
2021/10/23 03:25:08;;;;;;;7.30;1.63;;;9.50;95.40;;;;;;5012032;28;20054;-75
2021/10/23 03:27:37;;;;;;;6.15;1.50;;;9.50;95.50;;;;;;5012441;28;20522;-74
2021/10/23 03:30:04;;;;;;;6.25;1.60;;;9.50;95.50;;;;;;5012961;28;20030;-75
2021/10/23 03:32:30;;;;;;;6.30;1.80;;;9.50;95.50;;;;;;5012401;28;20117;-75
2021/10/23 03:34:59;;;;;;;7.72;1.45;;;9.50;95.60;;;;;;5011938;28;20054;-75
2021/10/23 03:37:28;;;;;;;4.72;1.67;;;9.50;95.60;;;;;;5012347;28;20117;-75
2021/10/23 03:39:54;;;;;;;5.80;1.42;;;9.40;96.00;;;;;;5013015;28;20347;-75
2021/10/23 03:42:19;;;;;;;3.75;1.60;;;9.40;95.90;;;;;;5012307;28;20083;-75
2021/10/23 03:44:45;;;;;;;6.25;1.50;;;9.30;96.00;;;;;;5013612;28;20061;-74
2021/10/23 03:47:11;;;;;;;6.80;1.50;;;9.30;96.00;;;;;;5028130;28;20133;-75
2021/10/23 03:49:37;;;;;;;5.45;1.77;;;9.30;96.20;;;;;;5012254;28;20474;-75
2021/10/23 03:52:03;;;;;;;6.35;1.52;;;9.20;96.30;;;;;;5011724;28;20021;-75
2021/10/23 03:54:28;;;;;;;5.93;2.10;;;9.20;96.30;;;;;;5013101;28;20022;-75
2021/10/23 03:56:54;;;;;;;5.68;1.48;;;9.20;96.50;;;;;;5011131;28;20072;-76
2021/10/23 03:59:20;;;;;;;6.93;1.58;;;9.20;96.60;;;;;;5011679;28;20030;-75
2021/10/23 04:01:46;;;;;;;6.85;1.70;;;9.20;96.60;;;;;;5012989;28;20117;-75
2021/10/23 04:04:11;;;;;;;3.63;1.92;;;9.10;96.70;;;;;;5011163;28;20079;-75
2021/10/23 04:06:37;;;;;;;6.10;1.60;;;9.10;96.70;;;;;;5013206;28;20022;-75
2021/10/23 04:09:03;;;;;;;6.20;1.70;;;9.10;96.70;;;;;;5011395;28;20097;-74
2021/10/23 04:11:29;;;;;;;7.00;1.77;;;9.20;96.70;;;;;;5011866;28;20078;-74
2021/10/23 04:13:54;;;;;;;4.63;1.38;;;9.10;96.80;;;;;;5027835;28;20045;-75
2021/10/23 04:16:20;;;;;;;3.70;1.42;;;9.10;96.70;;;;;;5011509;28;20049;-75
2021/10/23 04:18:46;;;;;;;6.75;1.70;;;9.10;96.80;;;;;;5013140;28;20145;-75
2021/10/23 04:21:13;;;;;;;4.82;1.52;;;9.20;96.80;;;;;;5011379;28;20028;-75
2021/10/23 04:23:39;;;;;;;10.18;1.95;;;9.20;96.80;;;;;;5012885;28;20029;-75
2021/10/23 04:26:05;;;;;;;7.60;1.63;;;9.10;96.80;;;;;;5011134;28;20463;-75
2021/10/23 04:28:30;;;;;;;8.90;2.10;;;9.10;96.80;;;;;;5012978;28;20114;-75
2021/10/23 04:30:59;;;;;;;6.32;1.60;;;9.10;96.90;;;;;;5012188;28;20080;-76
2021/10/23 04:33:24;;;;;;;5.60;1.73;;;9.00;97.00;;;;;;5011658;28;20036;-75
2021/10/23 04:35:50;;;;;;;7.00;1.70;;;9.00;97.10;;;;;;5011846;28;20026;-75
2021/10/23 04:38:17;;;;;;;3.28;1.75;;;9.00;97.10;;;;;;5011103;28;20033;-75
2021/10/23 04:40:43;;;;;;;6.35;1.85;;;9.00;97.20;;;;;;5011520;28;20026;-75
2021/10/23 04:43:09;;;;;;;6.03;1.70;;;8.90;97.20;;;;;;5011039;28;20034;-75
2021/10/23 04:45:35;;;;;;;8.15;1.60;;;8.90;97.30;;;;;;5012905;28;20100;-75
2021/10/23 04:48:02;;;;;;;2.72;1.40;;;8.90;97.30;;;;;;5011262;28;20026;-75
2021/10/23 04:50:28;;;;;;;7.78;1.95;;;8.80;97.30;;;;;;5011622;28;20022;-74
2021/10/23 04:52:53;;;;;;;4.97;1.25;;;8.90;97.30;;;;;;5028015;28;20052;-76
2021/10/23 04:55:20;;;;;;;7.82;1.52;;;8.80;97.30;;;;;;5011977;28;20060;-75
2021/10/23 04:57:46;;;;;;;5.60;2.00;;;8.80;97.40;;;;;;5011567;28;20025;-75
2021/10/23 05:00:12;;;;;;;3.20;1.38;;;8.80;97.30;;;;;;5010887;28;20367;-75
2021/10/23 05:02:37;;;;;;;4.20;1.40;;;8.80;97.30;;;;;;5012331;28;20065;-75
2021/10/23 05:05:03;;;;;;;5.60;1.65;;;8.70;97.20;;;;;;5010991;28;20460;-75
2021/10/23 05:07:29;;;;;;;9.07;1.50;;;8.80;97.30;;;;;;5012875;28;20026;-76
2021/10/23 05:09:54;;;;;;;4.45;1.77;;;8.80;97.20;;;;;;5027835;28;20068;-75
2021/10/23 05:12:20;;;;;;;4.35;1.60;;;8.70;97.20;;;;;;5012091;28;20026;-75
2021/10/23 05:14:46;;;;;;;6.90;1.95;;;8.70;97.20;;;;;;5012715;28;20064;-76
2021/10/23 05:17:11;;;;;;;4.82;2.03;;;8.70;97.20;;;;;;5027497;28;20022;-76
2021/10/23 05:19:37;;;;;;;6.50;1.80;;;8.70;97.20;;;;;;5011811;28;20033;-75
2021/10/23 05:22:03;;;;;;;4.90;1.90;;;8.60;97.10;;;;;;5012043;28;20022;-75
2021/10/23 05:24:28;;;;;;;7.90;1.90;;;8.70;97.20;;;;;;5012505;28;20032;-75
2021/10/23 05:26:54;;;;;;;5.18;1.42;;;8.60;97.00;;;;;;5011403;28;20116;-75
2021/10/23 05:29:20;;;;;;;3.60;1.38;;;8.60;97.10;;;;;;5014138;28;20352;-75
2021/10/23 05:31:46;;;;;;;5.55;1.33;;;8.60;97.00;;;;;;5014848;28;20117;-76
2021/10/23 05:34:12;;;;;;;5.90;1.65;;;8.60;97.00;;;;;;5014286;28;20050;-76
2021/10/23 05:36:37;;;;;;;6.40;1.73;;;8.60;97.10;;;;;;5031340;28;20525;-76
2021/10/23 05:39:04;;;;;;;4.90;2.00;;;8.60;97.10;;;;;;5015455;28;20113;-76
2021/10/23 05:41:29;;;;;;;4.45;2.13;;;8.50;97.20;;;;;;5015750;28;20447;-76
2021/10/23 05:43:55;;;;;;;5.80;2.15;;;8.50;97.20;;;;;;5014678;28;20026;-76
2021/10/23 05:46:21;;;;;;;5.30;1.77;;;8.50;97.20;;;;;;5015525;28;20076;-76
2021/10/23 05:48:47;;;;;;;4.90;1.90;;;8.50;97.20;;;;;;5015803;28;20029;-76
2021/10/23 05:51:12;;;;;;;5.82;2.00;;;8.50;97.10;;;;;;5014135;28;20029;-76
2021/10/23 05:53:38;;;;;;;7.35;2.10;;;8.60;97.10;;;;;;5014490;28;20030;-76
2021/10/23 05:56:04;;;;;;;4.30;1.80;;;8.60;97.20;;;;;;5013722;28;20176;-76
2021/10/23 05:58:30;;;;;;;8.80;1.88;;;8.60;97.10;;;;;;5030977;28;20072;-75
2021/10/23 06:01:05;;;;;;;4.45;1.92;;;8.50;97.10;;;;;;5014171;28;20046;-75
2021/10/23 06:03:33;;;;;;;3.65;1.80;;;8.50;97.20;;;;;;5030515;28;20055;-76
2021/10/23 06:05:59;;;;;;;6.00;2.22;;;8.50;97.20;;;;;;5015459;28;20018;-76
2021/10/23 06:08:25;;;;;;;7.65;1.90;;;8.50;97.30;;;;;;5015304;28;20029;-75
2021/10/23 06:10:51;;;;;;;4.80;1.65;;;8.50;97.30;;;;;;5013983;28;20022;-76
2021/10/23 06:13:18;;;;;;;5.15;2.33;;;8.40;97.30;;;;;;5029805;28;20029;-76
2021/10/23 06:15:44;;;;;;;3.67;1.85;;;8.40;97.30;;;;;;5010026;28;20382;-74
2021/10/23 06:18:09;;;;;;;8.93;2.70;;;8.40;97.40;;;;;;5015112;28;20018;-75
2021/10/23 06:20:35;;;;;;;7.47;1.90;;;8.40;97.50;;;;;;5013244;28;20025;-75
2021/10/23 06:23:01;;;;;;;6.97;1.90;;;8.40;97.60;;;;;;5014482;28;20021;-74
2021/10/23 06:25:27;;;;;;;5.43;1.80;;;8.30;97.60;;;;;;5014615;28;20057;-74
2021/10/23 06:27:52;;;;;;;5.18;2.13;;;8.40;97.60;;;;;;5013564;28;20088;-75
2021/10/23 06:30:18;;;;;;;9.38;2.55;;;8.40;97.60;;;;;;5012631;28;20544;-75
2021/10/23 06:32:51;;;;;;;8.52;2.05;;;8.40;97.50;;;;;;5014397;28;20026;-76
2021/10/23 06:35:18;;;;;;;6.10;1.95;;;8.40;97.60;;;;;;5012656;28;20026;-76
2021/10/23 06:37:45;;;;;;;6.60;2.13;;;8.30;97.70;;;;;;5013235;28;20447;-75
2021/10/23 06:40:11;;;;;;;9.13;2.33;;;8.30;97.70;;;;;;5012314;28;20022;-76
2021/10/23 06:42:39;;;;;;;8.45;2.38;;;8.30;97.90;;;;;;5012822;28;20045;-75
2021/10/23 06:45:07;;;;;;;5.38;2.45;;;8.30;97.90;;;;;;5013827;28;20033;-75
2021/10/23 06:47:32;;;;;;;9.20;2.55;;;8.20;98.10;;;;;;5014464;28;20491;-75
2021/10/23 06:49:58;;;;;;;6.97;2.80;;;8.30;98.10;;;;;;5013006;28;20033;-75
2021/10/23 06:52:25;;;;;;;8.80;2.70;;;8.30;98.10;;;;;;5012192;28;20472;-75
2021/10/23 06:54:52;;;;;;;7.20;2.40;;;8.40;98.00;;;;;;5012605;28;20344;-75
2021/10/23 06:57:17;;;;;;;10.85;3.00;;;8.30;98.10;;;;;;5013641;28;20033;-75
2021/10/23 06:59:43;;;;;;;4.68;2.55;;;8.30;98.20;;;;;;5012788;28;20022;-75
2021/10/23 07:02:09;;;;;;;8.07;2.42;;;8.30;98.20;;;;;;5012397;28;20033;-76
2021/10/23 07:04:34;;;;;;;7.28;2.38;;;8.30;98.20;;;;;;5013872;28;20030;-76
2021/10/23 07:07:00;;;;;;;8.95;3.15;;;8.30;98.30;;;;;;5014048;28;20025;-77
2021/10/23 07:09:26;;;;;;;7.45;2.75;;;8.40;98.60;;;;;;5012527;28;20032;-76
2021/10/23 07:11:52;;;;;;;8.00;3.35;;;8.40;98.70;;;;;;5012711;28;20481;-76
2021/10/23 07:14:17;;;;;;;6.25;2.65;;;8.40;98.60;;;;;;5013363;28;20048;-76
2021/10/23 07:16:43;;;;;;;8.88;2.95;;;8.50;98.50;;;;;;5012942;28;20109;-75
2021/10/23 07:19:08;;;;;;;10.05;2.83;;;8.50;98.30;;;;;;5012066;28;20362;-76
2021/10/23 07:21:34;;;;;;;9.55;2.60;;;8.50;98.20;;;;;;5012582;28;20489;-76
2021/10/23 07:24:00;;;;;;;10.32;3.00;;;8.40;98.40;;;;;;5013629;28;20029;-75
2021/10/23 07:26:26;;;;;;;6.88;3.30;;;8.40;98.40;;;;;;5011444;28;20116;-74
2021/10/23 07:28:52;;;;;;;10.98;2.80;;;8.50;98.40;;;;;;5013280;28;20080;-76
2021/10/23 07:31:18;;;;;;;6.60;3.13;;;8.60;98.30;;;;;;5028019;28;20469;-76
2021/10/23 07:33:44;;;;;;;6.68;2.70;;;8.50;98.40;;;;;;5011992;28;20165;-76
2021/10/23 07:36:10;;;;;;;10.52;3.20;;;8.50;98.40;;;;;;5011756;28;20052;-76
2021/10/23 07:38:37;;;;;;;10.25;3.28;;;8.60;98.30;;;;;;5013624;28;20017;-76
2021/10/23 07:41:03;;;;;;;10.50;2.92;;;8.60;98.30;;;;;;5011610;28;20471;-77
2021/10/23 07:43:29;;;;;;;9.15;4.10;;;8.60;98.10;;;;;;5011865;28;20033;-76
2021/10/23 07:45:54;;;;;;;7.90;3.08;;;8.70;98.30;;;;;;5013707;28;20048;-76
2021/10/23 07:48:20;;;;;;;6.28;3.30;;;8.70;98.20;;;;;;5028249;28;20029;-76
2021/10/23 07:50:47;;;;;;;8.48;2.47;;;8.70;98.20;;;;;;5028191;28;20026;-75
2021/10/23 07:53:12;;;;;;;8.43;2.58;;;8.80;97.90;;;;;;5013124;28;20045;-76
2021/10/23 07:55:38;;;;;;;6.95;2.70;;;8.90;97.60;;;;;;5028202;28;20046;-75
2021/10/23 07:58:04;;;;;;;4.18;2.00;;;9.00;97.30;;;;;;5027920;28;20450;-76
2021/10/23 08:00:30;;;;;;;6.18;2.53;;;9.00;96.90;;;;;;5025759;28;20029;-76
2021/10/23 08:02:57;;;;;;;7.68;2.53;;;9.00;96.80;;;;;;5006178;28;20040;-75
2021/10/23 08:05:25;;;;;;;5.20;2.17;;;9.10;96.70;;;;;;5008147;28;20030;-76
2021/10/23 08:07:52;;;;;;;9.68;2.15;;;9.10;96.60;;;;;;4993713;28;20486;-76
2021/10/23 08:10:20;;;;;;;8.70;2.25;;;9.10;96.90;;;;;;4994876;28;20018;-75
2021/10/23 08:12:47;;;;;;;9.68;2.35;;;9.10;96.70;;;;;;5027876;28;20033;-76
2021/10/23 08:15:13;;;;;;;7.88;2.42;;;9.10;96.60;;;;;;5011843;28;20017;-77
2021/10/23 08:17:40;;;;;;;4.43;2.13;;;9.10;96.50;;;;;;5008082;28;20108;-75
2021/10/23 08:20:07;;;;;;;5.80;2.20;;;9.10;96.40;;;;;;5011805;28;20048;-76
2021/10/23 08:22:36;;;;;;;6.50;2.20;;;9.30;96.00;;;;;;5027650;28;20032;-75
2021/10/23 08:25:05;;;;;;;8.52;2.10;;;9.30;95.90;;;;;;5011154;28;20156;-75
2021/10/23 08:27:36;;;;;;;8.30;2.25;;;9.40;96.00;;;;;;5012195;28;20022;-75
2021/10/23 08:30:05;;;;;;;5.95;1.95;;;9.40;96.10;;;;;;5011451;28;20025;-75
2021/10/23 08:32:31;;;;;;;8.02;2.72;;;9.40;95.80;;;;;;5010369;28;20026;-75
2021/10/23 08:34:58;;;;;;;6.82;2.42;;;9.50;95.50;;;;;;5027044;28;20029;-75
2021/10/23 08:37:23;;;;;;;6.80;2.15;;;9.40;95.50;;;;;;5011554;28;20014;-76
2021/10/23 08:39:50;;;;;;;8.25;2.25;;;9.50;95.80;;;;;;5016976;28;20076;-76
2021/10/23 08:42:16;;;;;;;4.97;1.90;;;9.50;95.80;;;;;;5021615;28;20017;-75
2021/10/23 08:44:45;;;;;;;6.07;2.53;;;9.60;95.70;;;;;;5020708;28;20356;-76
2021/10/23 08:47:13;;;;;;;4.40;2.15;;;9.70;95.40;;;;;;5020499;28;20073;-76
2021/10/23 08:49:40;;;;;;;5.18;2.13;;;9.70;95.10;;;;;;5023494;28;20374;-76
2021/10/23 08:52:06;;;;;;;6.32;2.58;;;9.80;95.10;;;;;;5018849;28;20374;-78
2021/10/23 08:54:33;;;;;;;10.10;3.60;;;9.80;94.90;;;;;;5018640;28;20041;-75
2021/10/23 08:56:59;;;;;;;9.60;3.20;;;9.90;95.00;;;;;;5021310;28;20049;-75
2021/10/23 08:59:26;;;;;;;7.50;2.80;;;9.90;94.60;;;;;;5020579;28;20201;-75
2021/10/23 09:01:59;;;;;;;11.48;3.33;;;9.90;94.50;;;;;;5020604;28;20176;-75
2021/10/23 09:04:29;;;;;;;9.80;2.65;;;9.80;94.50;;;;;;5022126;28;20225;-75
2021/10/23 09:07:09;;;;;;;6.93;2.72;;;9.90;94.50;;;;;;5027084;28;20013;-75
2021/10/23 09:09:53;;;;;;;7.43;2.20;;;9.90;94.70;;;;;;5023304;28;20033;-75
2021/10/23 09:12:28;;;;;;;5.10;1.70;;;10.00;94.60;;;;;;5019114;28;20163;-75
2021/10/23 09:15:05;;;;;;;7.88;2.10;;;10.10;94.30;;;;;;5018711;28;20056;-75
2021/10/23 09:17:31;;;;;;;8.65;2.63;;;10.20;94.40;;;;;;5012502;28;20094;-78
2021/10/23 09:20:03;;;;;;;5.80;2.38;;;10.20;94.50;;;;;;5016205;28;20122;-78
2021/10/23 09:22:34;;;;;;;7.28;2.35;;;10.30;94.20;;;;;;5015792;28;20026;-76
2021/10/23 09:25:17;;;;;;;10.13;1.90;;;10.30;94.10;;;;;;5014166;28;20383;-76
2021/10/23 09:28:12;;;;;;;9.80;2.17;;;10.40;94.00;;;;;;5014460;28;20033;-78
2021/10/23 09:30:47;;;;;;;14.13;3.65;;;10.50;94.30;;;;;;5014388;28;20029;-78
2021/10/23 09:33:25;;;;;;;10.90;2.50;;;10.50;94.90;;;;;;5014092;28;20021;-77
2021/10/23 09:35:55;;;;;;;10.38;2.50;;;10.60;94.40;;;;;;5014651;28;20056;-77
2021/10/23 09:38:22;;;;;;;13.25;4.57;;;10.60;94.00;;;;;;5015014;28;20050;-77
2021/10/23 09:41:24;;;;;;;9.02;2.55;;;10.60;93.90;;;;;;5014478;28;20354;-77
2021/10/23 09:43:50;;;;;;;6.60;2.53;;;10.60;93.80;;;;;;5016768;28;20030;-79
2021/10/23 09:46:21;;;;;;;4.63;1.92;;;10.70;94.00;;;;;;5014336;28;20095;-80
2021/10/23 09:48:52;;;;;;;5.22;1.95;;;10.70;94.10;;;;;;5010894;28;20459;-77
2021/10/23 09:51:23;;;;;;;6.88;1.88;;;10.70;93.90;;;;;;5024351;28;20026;-76
2021/10/23 09:53:50;;;;;;;5.88;2.03;;;10.70;93.80;;;;;;5010305;28;20029;-76
2021/10/23 09:56:19;;;;;;;5.60;2.22;;;10.80;93.90;;;;;;5019804;28;20046;-77
2021/10/23 09:58:56;;;;;;;7.53;2.08;;;10.80;94.00;;;;;;5011439;28;20026;-76
2021/10/23 10:01:33;;;;;;;6.75;2.10;;;10.90;93.80;;;;;;5010119;28;20029;-78
2021/10/23 10:04:04;;;;;;;6.70;2.10;;;10.90;93.60;;;;;;5013396;28;20030;-74
2021/10/23 10:06:30;;;;;;;6.57;2.03;;;10.90;93.70;;;;;;5013478;28;20021;-77
2021/10/23 10:08:56;;;;;;;8.13;1.83;;;11.00;93.60;;;;;;5014272;28;20018;-77
2021/10/23 10:11:22;;;;;;;8.07;2.15;;;11.00;93.70;;;;;;5014224;28;20029;-79
2021/10/23 10:13:52;;;;;;;5.45;2.00;;;10.90;93.90;;;;;;5012386;28;20030;-77
2021/10/23 10:16:18;;;;;;;10.52;2.50;;;11.00;94.20;;;;;;5012916;28;20029;-79
2021/10/23 10:18:48;;;;;;;7.63;1.73;;;11.00;94.80;;;;;;5014476;28;20022;-78
2021/10/23 10:21:17;;;;;;;3.85;1.90;;;11.10;94.00;;;;;;5013334;28;20022;-79
2021/10/23 10:23:44;;;;;;;6.85;1.95;;;11.30;93.90;;;;;;5030886;28;20030;-79
2021/10/23 10:26:25;;;;;;;6.57;2.00;;;11.40;93.60;;;;;;5015205;28;20113;-80
2021/10/23 10:42:58;;;;;;;6.85;2.10;;;11.70;93.00;;;;;;5014495;28;20463;-79
2021/10/23 10:45:33;;;;;;;5.65;1.63;;;11.80;92.70;;;;;;5029308;28;20060;-80
2021/10/23 10:48:17;;;;;;;6.90;2.00;;;11.90;92.80;;;;;;5014092;28;20036;-77
2021/10/23 10:51:11;;;;;;;4.07;1.77;;;12.00;92.60;;;;;;5013000;28;20375;-79
2021/10/23 10:54:04;;;;;;;6.90;2.05;;;12.00;92.10;;;;;;5014055;28;20029;-78
2021/10/23 10:56:44;;;;;;;5.07;2.20;;;11.90;92.30;;;;;;5022908;28;20060;-77
2021/10/23 10:59:10;;;;;;;5.13;1.50;;;12.00;92.10;;;;;;5013258;28;20471;-79
2021/10/23 11:01:35;;;;;;;8.48;1.80;;;12.20;92.00;;;;;;5012430;28;20020;-78
2021/10/23 11:04:07;;;;;;;2.40;1.30;;;12.30;91.50;;;;;;5012885;28;20406;-78
2021/10/23 11:06:38;;;;;;;3.47;1.83;;;12.40;90.90;;;;;;5012413;28;20106;-78
2021/10/23 11:09:16;;;;;;;3.70;1.30;;;12.60;90.40;;;;;;5018116;28;20029;-78
2021/10/23 11:11:49;;;;;;;3.80;1.30;;;12.60;90.00;;;;;;5024917;28;20040;-77
2021/10/23 11:14:35;;;;;;;3.58;1.30;;;12.70;90.50;;;;;;5015514;28;20041;-78
2021/10/23 11:17:01;;;;;;;4.22;1.35;;;12.70;90.60;;;;;;5012747;28;20027;-77
2021/10/23 11:19:38;;;;;;;3.35;1.35;;;12.80;90.50;;;;;;5023965;28;20441;-77
2021/10/23 11:22:12;;;;;;;5.63;1.10;;;13.00;90.10;;;;;;5014795;28;20108;-78
2021/10/23 11:24:46;;;;;;;2.58;1.00;;;13.20;88.10;;;;;;5013925;28;20100;-77
2021/10/23 11:27:26;;;;;;;2.30;0.90;;;13.30;87.30;;;;;;5017076;28;20030;-78
2021/10/23 11:30:12;;;;;;;2.78;1.08;;;13.40;85.90;;;;;;5021785;28;20022;-77
2021/10/23 11:32:54;;;;;;;2.33;1.20;;;13.40;85.50;;;;;;5020249;28;20072;-78
2021/10/23 11:35:51;;;;;;;3.38;1.40;;;13.50;85.40;;;;;;5020513;28;20459;-78
2021/10/23 11:38:20;;;;;;;4.03;1.10;;;13.50;84.40;;;;;;5020901;28;20014;-78
2021/10/23 11:40:51;;;;;;;2.08;0.93;;;13.50;86.00;;;;;;5022235;28;20029;-76
2021/10/23 11:43:17;;;;;;;2.95;1.15;;;13.50;87.00;;;;;;5018602;28;20021;-77
2021/10/23 11:45:44;;;;;;;2.20;0.95;;;13.50;86.90;;;;;;5020497;28;20030;-78
2021/10/23 11:48:12;;;;;;;2.58;0.90;;;13.40;86.10;;;;;;5022098;28;20028;-78
2021/10/23 11:50:50;;;;;;;1.77;0.80;;;13.40;84.50;;;;;;5017597;28;20033;-76
2021/10/23 11:53:25;;;;;;;2.60;1.27;;;13.30;84.30;;;;;;5014943;28;20022;-76
2021/10/23 11:55:52;;;;;;;1.45;1.10;;;13.40;85.50;;;;;;5018147;28;20372;-76
2021/10/23 11:58:24;;;;;;;4.78;0.80;;;13.40;85.30;;;;;;5019017;28;20025;-80
2021/10/23 12:00:59;;;;;;;2.72;1.10;;;13.40;84.00;;;;;;5015561;28;20036;-79
2021/10/23 12:03:40;;;;;;;1.30;0.93;;;13.30;84.20;;;;;;5012963;28;20037;-78
2021/10/23 12:06:39;;;;;;;2.40;1.10;;;13.30;83.70;;;;;;5012665;28;20022;-78
2021/10/23 12:09:25;;;;;;;2.25;1.08;;;13.40;85.90;;;;;;5011628;28;20406;-80
2021/10/23 12:12:16;;;;;;;5.80;1.30;;;13.40;86.90;;;;;;5013375;28;20439;-78
2021/10/23 12:14:43;;;;;;;2.47;1.17;;;13.40;86.90;;;;;;5013305;28;20018;-78
2021/10/23 12:17:09;;;;;;;4.95;1.40;;;13.40;86.60;;;;;;5010142;28;20108;-76
2021/10/23 12:19:44;;;;;;;4.68;1.27;;;13.40;86.60;;;;;;5012409;28;20117;-78
2021/10/23 12:22:13;;;;;;;2.95;1.30;;;13.40;85.60;;;;;;5013262;28;20459;-79
2021/10/23 12:24:42;;;;;;;2.58;1.33;;;13.40;86.00;;;;;;5003414;28;20033;-79
2021/10/23 12:27:14;;;;;;;2.90;0.90;;;13.50;86.30;;;;;;5013126;28;20052;-78
2021/10/23 12:29:43;;;;;;;5.85;1.30;;;13.50;86.90;;;;;;5012143;28;20088;-79
2021/10/23 12:32:33;;;;;;;3.42;1.08;;;13.60;86.90;;;;;;4998734;28;20112;-78
2021/10/23 12:35:01;;;;;;;3.20;0.80;;;13.60;84.90;;;;;;5011013;28;20034;-78
2021/10/23 12:37:26;;;;;;;2.70;0.93;;;13.70;84.30;;;;;;5013156;28;20452;-79
2021/10/23 12:40:21;;;;;;;3.30;0.90;;;13.70;84.10;;;;;;5017009;28;20053;-78
2021/10/23 12:43:18;;;;;;;3.63;1.08;;;13.80;84.90;;;;;;5016007;28;20410;-80
2021/10/23 12:45:49;;;;;;;3.75;0.82;;;13.80;84.50;;;;;;5019865;28;20391;-81
2021/10/23 12:48:19;;;;;;;2.92;0.90;;;13.80;85.50;;;;;;5015513;28;20022;-78
2021/10/23 12:50:47;;;;;;;2.17;0.70;;;13.80;86.40;;;;;;5016417;28;20026;-78
2021/10/23 12:53:13;;;;;;;3.13;0.80;;;13.90;86.30;;;;;;5016372;28;20049;-79
2021/10/23 12:55:41;;;;;;;3.67;0.70;;;13.90;85.30;;;;;;5014935;28;20050;-78
2021/10/23 12:58:06;;;;;;;2.17;0.63;;;13.80;83.90;;;;;;5016648;28;20025;-76
2021/10/23 13:00:32;;;;;;;2.88;1.00;;;13.90;83.60;;;;;;5015768;28;20471;-79
2021/10/23 13:02:58;;;;;;;4.05;0.88;;;13.90;84.00;;;;;;5015287;28;20022;-78
2021/10/23 13:05:25;;;;;;;5.95;1.83;;;13.90;84.00;;;;;;5015104;28;20030;-77
2021/10/23 13:07:51;;;;;;;5.15;1.80;;;13.90;83.60;;;;;;5014705;28;20018;-80
2021/10/23 13:10:17;;;;;;;8.25;2.22;;;13.90;83.20;;;;;;5015393;28;20435;-79
2021/10/23 13:12:44;;;;;;;4.82;1.80;;;13.80;83.80;;;;;;5031795;28;20022;-78
2021/10/23 13:15:10;;;;;;;3.17;1.27;;;13.80;83.40;;;;;;5016248;28;20101;-80